Time;durP1;ratioP1;P1;durP2;ratioP2;P2;SDS_P1;SDS_P2;PMS_P1;PMS_P2;Temp;Humidity;BMP_temperature;BMP_pressure;BME280_temperature;BME280_humidity;BME280_pressure;Samples;Min_cycle;Max_cycle;Signal;HPM_P1;HPM_P2
2024/03/29 00:00:42;;;;;;;3.42;1.40;;;18.20;75.80;;;;;;4992558;28;20132;-30
2024/03/29 00:03:08;;;;;;;2.47;1.35;;;18.20;75.80;;;;;;4992618;28;20409;-34
2024/03/29 00:05:34;;;;;;;2.03;1.40;;;18.20;75.80;;;;;;4992850;28;20109;-30
2024/03/29 00:08:00;;;;;;;2.17;1.23;;;18.20;75.80;;;;;;4992380;28;20452;-30
2024/03/29 00:10:25;;;;;;;1.67;1.27;;;18.10;75.70;;;;;;4992791;28;20030;-31
2024/03/29 00:12:51;;;;;;;2.35;1.50;;;18.20;75.80;;;;;;4993313;28;20545;-31
2024/03/29 00:15:17;;;;;;;2.15;1.40;;;18.20;75.80;;;;;;4992523;28;20027;-30
2024/03/29 00:17:42;;;;;;;1.70;1.08;;;18.10;75.80;;;;;;4992579;28;20065;-30
2024/03/29 00:20:08;;;;;;;1.63;1.20;;;18.10;75.90;;;;;;4992222;28;20039;-30
2024/03/29 00:22:34;;;;;;;3.42;1.27;;;18.10;75.80;;;;;;4992335;28;20057;-31
2024/03/29 00:25:00;;;;;;;2.50;1.30;;;18.10;75.80;;;;;;4992374;28;20026;-30
2024/03/29 00:27:28;;;;;;;2.53;1.33;;;18.10;75.80;;;;;;4992237;28;20432;-32
2024/03/29 00:29:54;;;;;;;2.30;1.58;;;18.10;75.90;;;;;;4992377;28;20217;-30
2024/03/29 00:32:23;;;;;;;1.85;1.30;;;18.10;75.80;;;;;;4992485;28;20485;-30
2024/03/29 00:34:50;;;;;;;2.25;1.45;;;18.10;75.80;;;;;;4992741;28;20030;-31
2024/03/29 00:37:16;;;;;;;2.55;1.40;;;18.10;75.80;;;;;;4992393;28;20030;-31
2024/03/29 00:39:42;;;;;;;3.95;1.45;;;18.00;75.80;;;;;;4992485;28;20058;-32
2024/03/29 00:42:12;;;;;;;2.67;1.42;;;18.10;75.80;;;;;;4992120;28;20034;-32
2024/03/29 00:44:39;;;;;;;1.88;1.20;;;18.00;75.80;;;;;;4992505;28;20303;-31
2024/03/29 00:47:05;;;;;;;1.88;1.17;;;18.00;75.80;;;;;;4992199;28;20033;-32
2024/03/29 00:49:30;;;;;;;3.80;1.35;;;18.00;75.80;;;;;;4992889;28;20023;-32
2024/03/29 00:51:56;;;;;;;2.13;1.30;;;18.00;75.80;;;;;;4992235;28;20026;-32
2024/03/29 00:54:25;;;;;;;2.25;1.50;;;18.00;76.60;;;;;;4992998;28;20101;-32
2024/03/29 00:56:51;;;;;;;3.53;1.30;;;18.00;75.80;;;;;;4992150;28;20093;-31
2024/03/29 00:59:17;;;;;;;2.10;1.17;;;18.00;75.80;;;;;;4992026;28;20026;-31
2024/03/29 01:01:43;;;;;;;1.70;1.20;;;18.00;75.80;;;;;;4991991;28;20030;-31
2024/03/29 01:04:09;;;;;;;1.92;1.25;;;18.00;76.60;;;;;;4992199;28;20058;-31
2024/03/29 01:06:34;;;;;;;3.00;1.40;;;18.00;75.90;;;;;;4995378;28;20117;-31
2024/03/29 01:09:01;;;;;;;1.70;1.10;;;18.00;75.90;;;;;;4995490;28;20034;-31
2024/03/29 01:11:26;;;;;;;1.60;1.20;;;18.00;75.90;;;;;;4978037;28;20054;-31
2024/03/29 01:13:52;;;;;;;2.63;1.38;;;17.90;76.60;;;;;;4995759;28;20452;-31
2024/03/29 01:16:18;;;;;;;1.35;1.00;;;18.00;75.90;;;;;;4995599;28;20085;-31
2024/03/29 01:18:44;;;;;;;2.95;1.27;;;18.00;75.90;;;;;;4995360;28;20429;-30
2024/03/29 01:21:09;;;;;;;2.67;1.10;;;17.90;75.90;;;;;;4995301;28;20026;-30
2024/03/29 01:23:35;;;;;;;2.63;1.38;;;17.90;75.90;;;;;;4995515;28;20486;-31
2024/03/29 01:26:01;;;;;;;2.47;1.38;;;17.90;75.90;;;;;;4995327;28;20046;-30
2024/03/29 01:28:27;;;;;;;2.58;1.25;;;17.90;75.90;;;;;;4995535;28;20041;-31
2024/03/29 01:30:53;;;;;;;3.47;1.65;;;17.90;75.90;;;;;;4995495;28;20379;-32
2024/03/29 01:33:18;;;;;;;4.10;1.30;;;17.90;75.90;;;;;;4995397;28;20481;-32
2024/03/29 01:35:44;;;;;;;1.48;1.10;;;17.90;75.90;;;;;;4995407;28;20038;-31
2024/03/29 01:38:10;;;;;;;2.45;1.13;;;17.90;75.90;;;;;;4995083;28;20038;-31
2024/03/29 01:40:36;;;;;;;1.80;1.30;;;17.90;75.90;;;;;;4994972;28;20034;-31
2024/03/29 01:43:02;;;;;;;1.77;1.20;;;17.90;75.90;;;;;;4995396;28;20393;-31
2024/03/29 01:45:29;;;;;;;2.65;1.50;;;17.90;76.00;;;;;;4995199;28;20019;-32
2024/03/29 01:47:55;;;;;;;1.98;1.15;;;17.90;75.90;;;;;;4995263;28;20026;-32
2024/03/29 01:50:21;;;;;;;1.73;1.13;;;17.80;75.90;;;;;;4994970;28;20123;-32
2024/03/29 01:52:48;;;;;;;2.08;1.30;;;17.90;75.90;;;;;;4995104;28;20029;-32
2024/03/29 01:55:14;;;;;;;1.45;1.05;;;17.80;75.90;;;;;;4995099;28;20026;-31
2024/03/29 01:57:40;;;;;;;2.03;0.98;;;17.80;75.90;;;;;;4995020;28;20441;-30
2024/03/29 02:00:07;;;;;;;2.03;1.48;;;17.80;76.70;;;;;;4994809;28;20508;-30
2024/03/29 02:02:33;;;;;;;1.50;1.10;;;17.80;75.90;;;;;;4995482;28;20018;-31
2024/03/29 02:04:59;;;;;;;1.60;0.95;;;17.80;75.90;;;;;;5002775;28;20018;-32
2024/03/29 02:07:25;;;;;;;2.65;1.02;;;17.80;75.90;;;;;;4996404;28;20445;-32
2024/03/29 02:09:51;;;;;;;1.65;1.00;;;17.80;75.90;;;;;;4994697;28;20061;-31
2024/03/29 02:12:17;;;;;;;1.40;0.85;;;17.80;75.90;;;;;;4994727;28;20473;-32
2024/03/29 02:14:43;;;;;;;1.52;0.80;;;17.80;75.90;;;;;;4995041;28;20397;-32
2024/03/29 02:17:09;;;;;;;1.70;1.20;;;17.80;75.90;;;;;;4994453;28;20026;-32
2024/03/29 02:19:34;;;;;;;2.97;0.95;;;17.80;75.90;;;;;;4994574;28;20026;-32
2024/03/29 02:22:01;;;;;;;1.90;1.00;;;17.80;75.90;;;;;;4994177;28;20037;-30
2024/03/29 02:24:27;;;;;;;2.80;1.08;;;17.70;75.90;;;;;;4994264;28;20026;-31
2024/03/29 02:26:56;;;;;;;1.70;1.10;;;17.70;75.90;;;;;;4994408;28;20026;-30
2024/03/29 02:29:23;;;;;;;2.45;1.13;;;17.70;75.90;;;;;;4994092;28;20041;-30
2024/03/29 02:31:48;;;;;;;1.65;0.95;;;17.70;76.00;;;;;;4994125;28;20117;-31
2024/03/29 02:34:14;;;;;;;1.77;1.00;;;17.70;76.00;;;;;;4994067;28;20072;-32
2024/03/29 02:36:41;;;;;;;1.85;0.70;;;17.70;76.00;;;;;;4994153;28;20026;-31
2024/03/29 02:39:07;;;;;;;1.40;0.95;;;17.70;76.10;;;;;;4994297;28;20026;-31
2024/03/29 02:41:32;;;;;;;1.95;0.90;;;17.70;76.10;;;;;;4994213;28;20116;-31
2024/03/29 02:43:58;;;;;;;2.10;1.20;;;17.70;76.10;;;;;;4993927;28;20395;-31
2024/03/29 02:46:24;;;;;;;1.10;0.90;;;17.70;76.10;;;;;;4993950;28;20057;-32
2024/03/29 02:48:50;;;;;;;1.60;0.90;;;17.70;76.10;;;;;;4993677;28;20577;-31
2024/03/29 02:51:15;;;;;;;1.00;0.80;;;17.70;76.10;;;;;;4993631;28;20034;-31
2024/03/29 02:53:41;;;;;;;2.35;1.00;;;17.70;76.20;;;;;;4993771;28;20027;-32
2024/03/29 02:56:07;;;;;;;1.60;1.10;;;17.70;76.20;;;;;;4993754;28;20034;-32
2024/03/29 02:58:36;;;;;;;1.92;1.00;;;17.70;76.20;;;;;;4993564;28;20027;-32
2024/03/29 03:01:10;;;;;;;1.08;0.68;;;17.70;76.20;;;;;;4993476;28;20101;-32
2024/03/29 03:03:36;;;;;;;1.42;0.95;;;17.70;76.20;;;;;;4993543;28;20025;-31
2024/03/29 03:06:02;;;;;;;1.00;0.70;;;17.70;76.30;;;;;;4993258;28;20018;-31
2024/03/29 03:11:13;;;;;;;2.05;0.90;;;17.70;76.30;;;;;;4993413;28;20033;-30
2024/03/29 03:13:39;;;;;;;1.10;1.00;;;17.70;76.30;;;;;;4993377;28;20374;-32
2024/03/29 03:16:05;;;;;;;1.60;0.70;;;17.70;76.30;;;;;;4993212;28;20054;-31
2024/03/29 03:18:31;;;;;;;1.40;0.90;;;17.60;76.30;;;;;;4993478;28;20085;-32
2024/03/29 03:21:00;;;;;;;1.65;1.02;;;17.70;76.40;;;;;;4993126;28;20062;-32
2024/03/29 03:23:27;;;;;;;1.77;0.80;;;17.60;76.30;;;;;;4993266;28;20049;-32
2024/03/29 03:26:00;;;;;;;2.00;0.95;;;17.60;76.30;;;;;;4993830;28;20025;-32
2024/03/29 03:28:26;;;;;;;1.42;0.80;;;17.70;76.50;;;;;;4992117;28;20453;-32
2024/03/29 03:30:53;;;;;;;1.98;1.02;;;17.60;76.40;;;;;;4993110;28;20113;-32
2024/03/29 03:33:19;;;;;;;4.68;0.88;;;17.60;76.40;;;;;;4993230;28;20363;-32
2024/03/29 03:35:45;;;;;;;0.98;0.80;;;17.60;77.20;;;;;;4993180;28;20077;-30
2024/03/29 03:38:11;;;;;;;2.13;0.95;;;17.60;76.60;;;;;;4992745;28;20029;-30
2024/03/29 03:40:38;;;;;;;1.60;1.00;;;17.60;76.50;;;;;;4992814;28;20030;-31
2024/03/29 03:43:05;;;;;;;1.30;0.88;;;17.60;76.40;;;;;;4975472;28;20482;-31
2024/03/29 03:45:41;;;;;;;1.13;0.73;;;17.60;76.50;;;;;;4992886;28;20478;-31
2024/03/29 03:48:10;;;;;;;1.35;1.00;;;17.60;76.50;;;;;;4992536;28;20026;-31
2024/03/29 03:50:35;;;;;;;1.58;0.75;;;17.60;76.50;;;;;;4992696;28;20077;-31
2024/03/29 03:53:02;;;;;;;1.40;0.88;;;17.60;76.50;;;;;;4992777;28;20034;-33
2024/03/29 03:55:27;;;;;;;2.35;1.00;;;17.60;76.50;;;;;;4992644;28;20065;-31
2024/03/29 03:57:53;;;;;;;1.65;0.98;;;17.60;76.60;;;;;;4992519;28;20073;-31
2024/03/29 04:00:20;;;;;;;3.10;0.80;;;17.60;76.60;;;;;;4992569;28;20026;-31
2024/03/29 04:02:51;;;;;;;1.00;0.80;;;17.60;76.70;;;;;;4992806;28;20026;-31
2024/03/29 04:05:18;;;;;;;2.75;0.73;;;17.60;76.60;;;;;;4992521;28;20022;-31
2024/03/29 04:07:44;;;;;;;2.03;1.02;;;17.50;76.60;;;;;;4992177;28;20034;-31
2024/03/29 04:10:10;;;;;;;1.33;0.77;;;17.50;76.70;;;;;;4992701;28;20022;-31
2024/03/29 04:12:36;;;;;;;1.15;0.70;;;17.50;76.70;;;;;;4992732;28;20023;-31
2024/03/29 04:15:03;;;;;;;1.35;0.85;;;17.50;76.70;;;;;;4992606;28;20523;-32
2024/03/29 04:17:30;;;;;;;1.80;0.90;;;17.60;76.80;;;;;;4992413;28;20030;-31
2024/03/29 04:19:59;;;;;;;1.75;0.70;;;17.50;76.80;;;;;;4992424;28;20034;-31
2024/03/29 04:22:27;;;;;;;2.25;1.15;;;17.50;76.90;;;;;;4974889;28;20031;-30
2024/03/29 04:24:53;;;;;;;1.95;0.90;;;17.50;76.90;;;;;;4992391;28;20022;-32
2024/03/29 04:27:19;;;;;;;1.45;0.90;;;17.50;76.90;;;;;;4992302;28;20489;-32
2024/03/29 04:29:44;;;;;;;1.02;0.70;;;17.50;77.00;;;;;;4992406;28;20085;-33
2024/03/29 04:32:10;;;;;;;0.77;0.50;;;17.50;77.00;;;;;;4992411;28;20034;-32
2024/03/29 04:34:36;;;;;;;0.98;0.68;;;17.50;77.10;;;;;;4992328;28;20104;-32
2024/03/29 04:37:01;;;;;;;1.05;0.57;;;17.60;77.10;;;;;;4992264;28;20026;-32
2024/03/29 04:39:27;;;;;;;1.02;0.70;;;17.50;77.10;;;;;;4992470;28;20081;-32
2024/03/29 04:41:53;;;;;;;1.95;0.90;;;17.50;77.10;;;;;;4996129;28;20060;-30
2024/03/29 04:44:26;;;;;;;1.23;0.80;;;17.50;77.10;;;;;;4996253;28;20389;-31
2024/03/29 04:46:52;;;;;;;1.75;0.90;;;17.50;77.10;;;;;;4996275;28;20022;-30
2024/03/29 04:49:33;;;;;;;1.10;0.68;;;17.50;77.20;;;;;;4995965;28;20026;-32
2024/03/29 04:51:59;;;;;;;1.00;0.60;;;17.50;77.30;;;;;;4995954;28;20568;-32
2024/03/29 04:54:25;;;;;;;1.40;0.80;;;17.50;77.30;;;;;;4995962;28;20481;-31
2024/03/29 04:56:51;;;;;;;1.17;0.60;;;17.50;77.30;;;;;;4995891;28;20102;-30
2024/03/29 04:59:17;;;;;;;1.38;0.80;;;17.50;77.40;;;;;;4995729;28;20022;-32
2024/03/29 05:01:50;;;;;;;1.33;0.70;;;17.50;77.40;;;;;;4995581;28;20029;-31
2024/03/29 05:04:25;;;;;;;1.05;0.70;;;17.50;77.40;;;;;;4995914;28;20069;-32
2024/03/29 05:06:55;;;;;;;2.00;1.02;;;17.50;77.50;;;;;;4995995;28;20014;-32
2024/03/29 05:09:21;;;;;;;1.40;0.82;;;17.50;77.50;;;;;;4995621;28;20029;-32
2024/03/29 05:11:47;;;;;;;0.80;0.60;;;17.50;77.50;;;;;;4995550;28;20030;-32
2024/03/29 05:14:18;;;;;;;1.45;0.70;;;17.50;77.60;;;;;;4995410;28;20034;-31
2024/03/29 05:16:47;;;;;;;1.48;0.80;;;17.50;77.70;;;;;;4995600;28;20030;-31
2024/03/29 05:19:14;;;;;;;1.35;0.88;;;17.50;77.60;;;;;;4994958;28;20027;-31
2024/03/29 05:21:40;;;;;;;1.20;0.80;;;17.50;78.40;;;;;;4996026;28;20031;-33
2024/03/29 05:24:06;;;;;;;0.57;0.47;;;17.50;77.70;;;;;;4996507;28;20029;-33
2024/03/29 05:26:33;;;;;;;0.82;0.63;;;17.50;77.70;;;;;;4995437;28;20022;-32
2024/03/29 05:28:59;;;;;;;1.20;0.73;;;17.50;77.70;;;;;;4995086;28;20022;-31
2024/03/29 05:31:25;;;;;;;1.38;0.75;;;17.40;78.50;;;;;;4995139;28;20404;-33
2024/03/29 05:33:51;;;;;;;1.52;0.90;;;17.50;77.80;;;;;;4995192;28;20474;-31
2024/03/29 05:36:18;;;;;;;1.92;0.70;;;17.40;77.80;;;;;;4995115;28;20026;-33
2024/03/29 05:38:44;;;;;;;1.10;0.77;;;17.40;77.80;;;;;;4995091;28;20030;-32
2024/03/29 05:41:10;;;;;;;0.85;0.63;;;17.40;77.80;;;;;;4994954;28;20573;-33
2024/03/29 05:43:35;;;;;;;1.45;0.90;;;17.40;77.80;;;;;;4995166;28;20078;-33
2024/03/29 05:46:02;;;;;;;1.02;0.60;;;17.40;77.90;;;;;;4995031;28;20390;-31
2024/03/29 05:48:29;;;;;;;1.50;0.80;;;17.40;77.90;;;;;;4994732;28;20042;-32
2024/03/29 05:50:55;;;;;;;1.45;0.73;;;17.40;78.00;;;;;;4994659;28;20034;-33
2024/03/29 05:53:20;;;;;;;0.85;0.60;;;17.40;78.00;;;;;;4994311;28;20030;-33
2024/03/29 05:55:46;;;;;;;1.10;0.70;;;17.40;78.00;;;;;;4994834;28;20474;-32
2024/03/29 05:58:17;;;;;;;0.57;0.40;;;17.40;78.00;;;;;;4994688;28;20116;-33
2024/03/29 06:00:42;;;;;;;1.58;0.60;;;17.40;78.80;;;;;;4994711;28;20023;-33
2024/03/29 06:03:08;;;;;;;1.50;0.70;;;17.40;78.10;;;;;;4994882;28;20018;-32
2024/03/29 06:05:34;;;;;;;1.30;0.70;;;17.40;78.10;;;;;;4994634;28;20026;-32
2024/03/29 06:07:59;;;;;;;1.20;0.60;;;17.40;78.20;;;;;;4994461;28;20030;-31
2024/03/29 06:10:25;;;;;;;1.20;0.70;;;17.40;79.00;;;;;;4995148;28;20030;-29
2024/03/29 06:12:50;;;;;;;0.80;0.60;;;17.40;78.30;;;;;;4994533;28;20030;-32
2024/03/29 06:18:00;;;;;;;0.70;0.50;;;17.40;78.30;;;;;;4995254;28;20037;-32
2024/03/29 06:20:26;;;;;;;1.20;0.60;;;17.40;78.40;;;;;;4994254;28;20026;-32
2024/03/29 06:22:51;;;;;;;0.75;0.65;;;17.40;78.30;;;;;;4994371;28;20642;-32
2024/03/29 06:25:18;;;;;;;0.85;0.60;;;17.40;78.40;;;;;;4994265;28;20045;-33
2024/03/29 06:27:47;;;;;;;1.25;0.70;;;17.40;78.40;;;;;;4994120;28;20023;-32
2024/03/29 06:30:13;;;;;;;0.85;0.52;;;17.40;78.50;;;;;;4994168;28;20105;-33
2024/03/29 06:32:39;;;;;;;0.50;0.40;;;17.40;78.50;;;;;;4994160;28;20034;-32
2024/03/29 06:35:05;;;;;;;0.98;0.50;;;17.40;78.50;;;;;;4994170;28;20394;-33
2024/03/29 06:37:31;;;;;;;1.33;0.70;;;17.40;78.50;;;;;;4993893;28;20037;-33
2024/03/29 06:39:57;;;;;;;0.63;0.50;;;17.40;78.50;;;;;;4994151;28;20452;-33
2024/03/29 06:42:23;;;;;;;1.60;0.82;;;17.40;78.50;;;;;;4994049;28;20098;-32
2024/03/29 06:44:49;;;;;;;1.00;0.60;;;17.40;78.60;;;;;;4994006;28;20565;-32
2024/03/29 06:47:14;;;;;;;0.95;0.70;;;17.40;78.60;;;;;;4976091;28;20038;-30
2024/03/29 06:49:40;;;;;;;1.10;0.70;;;17.40;78.60;;;;;;4994304;28;20025;-31
2024/03/29 06:52:06;;;;;;;1.17;0.65;;;17.40;78.60;;;;;;4993619;28;20026;-31
2024/03/29 06:54:32;;;;;;;1.25;0.63;;;17.40;78.60;;;;;;4993731;28;20038;-33
2024/03/29 06:56:58;;;;;;;1.10;0.70;;;17.40;78.70;;;;;;4993940;28;20033;-33
2024/03/29 06:59:24;;;;;;;0.70;0.60;;;17.40;78.60;;;;;;4993700;28;20113;-33
2024/03/29 07:01:51;;;;;;;1.17;0.75;;;17.40;78.70;;;;;;4993448;28;20033;-32
2024/03/29 07:04:24;;;;;;;0.93;0.70;;;17.40;78.70;;;;;;4993435;28;20018;-32
2024/03/29 07:06:53;;;;;;;1.15;0.70;;;17.40;78.70;;;;;;4993514;28;20066;-33
2024/03/29 07:09:20;;;;;;;1.58;0.82;;;17.40;78.70;;;;;;4993927;28;20105;-34
2024/03/29 07:11:47;;;;;;;2.03;1.00;;;17.40;78.70;;;;;;4993409;28;20042;-33
2024/03/29 07:14:16;;;;;;;1.98;1.00;;;17.40;79.50;;;;;;4993457;28;20578;-32
2024/03/29 07:16:42;;;;;;;1.33;0.90;;;17.40;78.70;;;;;;4993676;28;20030;-32
2024/03/29 07:19:08;;;;;;;1.30;0.90;;;17.50;78.80;;;;;;4993041;28;20486;-33
2024/03/29 07:21:34;;;;;;;1.38;0.88;;;17.40;78.70;;;;;;4993186;28;20033;-31
2024/03/29 07:23:59;;;;;;;1.48;1.05;;;17.40;78.70;;;;;;4993179;28;20393;-33
2024/03/29 07:26:25;;;;;;;1.02;0.80;;;17.50;78.80;;;;;;4993144;28;20029;-33
2024/03/29 07:28:51;;;;;;;1.42;0.77;;;17.50;78.80;;;;;;4993177;28;20097;-33
2024/03/29 07:31:16;;;;;;;1.33;0.80;;;17.50;78.80;;;;;;4993211;28;20023;-33
2024/03/29 07:33:42;;;;;;;2.15;1.10;;;17.50;78.80;;;;;;4993306;28;20389;-32
2024/03/29 07:36:10;;;;;;;1.40;1.00;;;17.50;78.80;;;;;;4993521;28;20062;-33
2024/03/29 07:38:37;;;;;;;1.13;0.80;;;17.40;78.70;;;;;;4993005;28;20572;-33
2024/03/29 07:41:06;;;;;;;1.80;0.90;;;17.50;78.90;;;;;;4992915;28;20029;-33
2024/03/29 07:43:40;;;;;;;1.52;1.02;;;17.40;78.80;;;;;;4993152;28;20105;-33
2024/03/29 07:46:08;;;;;;;1.40;1.00;;;17.50;79.00;;;;;;4993353;28;20023;-33
2024/03/29 07:48:35;;;;;;;2.45;1.10;;;17.50;79.00;;;;;;4992484;28;20289;-34
2024/03/29 07:51:01;;;;;;;1.52;0.82;;;17.50;79.00;;;;;;4992824;28;20026;-32
2024/03/29 07:53:27;;;;;;;1.20;0.70;;;17.50;79.00;;;;;;4993138;28;20446;-32
2024/03/29 07:55:52;;;;;;;1.63;0.93;;;17.50;79.10;;;;;;4992852;28;20088;-32
2024/03/29 07:58:18;;;;;;;1.70;0.90;;;17.50;79.10;;;;;;4975111;28;20034;-33
2024/03/29 08:00:44;;;;;;;3.15;1.00;;;17.50;79.10;;;;;;4992667;28;20560;-31
2024/03/29 08:03:09;;;;;;;1.58;0.90;;;17.50;79.10;;;;;;4992550;28;20034;-32
2024/03/29 08:05:36;;;;;;;1.05;0.70;;;17.50;79.10;;;;;;4992701;28;20054;-33
2024/03/29 08:08:03;;;;;;;1.40;1.00;;;17.50;79.20;;;;;;4992577;28;20031;-31
2024/03/29 08:10:29;;;;;;;1.20;0.85;;;17.50;79.10;;;;;;4992561;28;20433;-32
2024/03/29 08:12:55;;;;;;;3.55;0.90;;;17.50;79.10;;;;;;4992541;28;20033;-33
2024/03/29 08:15:20;;;;;;;1.52;0.90;;;17.50;79.20;;;;;;4991973;28;20030;-32
2024/03/29 08:17:46;;;;;;;1.27;0.70;;;17.50;79.10;;;;;;4992231;28;20034;-32
2024/03/29 08:20:12;;;;;;;1.42;0.90;;;17.50;79.10;;;;;;4992358;28;20034;-32
2024/03/29 08:22:37;;;;;;;1.25;0.85;;;17.50;79.10;;;;;;4992578;28;20393;-33
2024/03/29 08:25:03;;;;;;;1.63;0.63;;;17.60;79.20;;;;;;4992647;28;20474;-32
2024/03/29 08:27:29;;;;;;;1.80;0.88;;;17.60;79.20;;;;;;4992408;28;20034;-31
2024/03/29 08:29:54;;;;;;;1.00;0.68;;;17.60;79.20;;;;;;5000235;28;20026;-33
2024/03/29 08:32:20;;;;;;;1.52;0.82;;;17.60;79.20;;;;;;4984835;28;20034;-33
2024/03/29 08:34:46;;;;;;;1.15;0.73;;;17.60;79.30;;;;;;4997043;28;20064;-32
2024/03/29 08:37:12;;;;;;;1.35;0.80;;;17.60;79.20;;;;;;4992455;28;20038;-32
2024/03/29 08:39:37;;;;;;;1.80;0.90;;;17.60;79.30;;;;;;4992701;28;20088;-33
2024/03/29 08:42:10;;;;;;;1.73;0.73;;;17.60;80.00;;;;;;4992214;28;20027;-33
2024/03/29 08:44:35;;;;;;;1.55;0.70;;;17.60;79.30;;;;;;4992287;28;20089;-32
2024/03/29 08:47:01;;;;;;;1.42;0.80;;;17.60;79.20;;;;;;4992239;28;20023;-30
2024/03/29 08:49:30;;;;;;;1.05;0.63;;;17.60;79.30;;;;;;4992049;28;20363;-33
2024/03/29 08:52:00;;;;;;;1.20;0.70;;;17.60;79.30;;;;;;4992296;28;20405;-31
2024/03/29 08:54:27;;;;;;;1.23;0.70;;;17.60;79.30;;;;;;4992590;28;20333;-32
2024/03/29 08:56:53;;;;;;;0.75;0.60;;;17.60;80.10;;;;;;4992240;28;20030;-31
2024/03/29 08:59:19;;;;;;;1.30;0.60;;;17.60;79.40;;;;;;4992288;28;20030;-33
2024/03/29 09:01:48;;;;;;;1.50;0.70;;;17.60;79.40;;;;;;4993466;28;20035;-32
2024/03/29 09:04:15;;;;;;;1.02;0.70;;;17.60;79.40;;;;;;4996170;28;20030;-32
2024/03/29 09:06:41;;;;;;;1.20;0.63;;;17.60;79.40;;;;;;4976794;28;20022;-32
2024/03/29 09:09:09;;;;;;;1.23;0.70;;;17.60;79.50;;;;;;4992440;28;20099;-32
2024/03/29 09:11:35;;;;;;;1.25;0.60;;;17.60;79.50;;;;;;4993111;28;20026;-33
2024/03/29 09:14:02;;;;;;;1.13;0.80;;;17.60;79.50;;;;;;4991975;28;20048;-32
2024/03/29 09:16:28;;;;;;;1.77;0.80;;;17.60;79.50;;;;;;4992566;28;20026;-32
2024/03/29 09:18:56;;;;;;;4.88;0.93;;;17.60;79.50;;;;;;4992240;28;20019;-31
2024/03/29 09:21:22;;;;;;;1.40;0.82;;;17.60;79.50;;;;;;4992610;28;20482;-32
2024/03/29 09:23:50;;;;;;;1.45;0.80;;;17.60;79.60;;;;;;4992483;28;20028;-30
2024/03/29 09:26:16;;;;;;;1.02;0.60;;;17.60;79.60;;;;;;4991947;28;20043;-30
2024/03/29 09:28:42;;;;;;;1.20;0.60;;;17.60;79.60;;;;;;4995170;28;20033;-31
2024/03/29 09:31:08;;;;;;;1.33;0.77;;;17.60;79.60;;;;;;4995343;28;20027;-33
2024/03/29 09:33:33;;;;;;;1.13;0.60;;;17.60;79.60;;;;;;4995323;28;20098;-32
2024/03/29 09:35:59;;;;;;;1.25;0.70;;;17.60;79.60;;;;;;4995307;28;20026;-31
2024/03/29 09:38:28;;;;;;;1.55;0.82;;;17.60;79.60;;;;;;4995096;28;20026;-32
2024/03/29 09:41:13;;;;;;;1.42;0.82;;;17.60;79.70;;;;;;4994989;28;20030;-32
2024/03/29 09:43:41;;;;;;;1.10;0.77;;;17.60;79.70;;;;;;4995348;28;20022;-33
2024/03/29 09:46:09;;;;;;;1.20;0.77;;;17.60;79.70;;;;;;4995321;28;20477;-33
2024/03/29 09:48:37;;;;;;;1.52;0.80;;;17.60;79.70;;;;;;4995286;28;20176;-32
2024/03/29 09:51:09;;;;;;;1.67;0.85;;;17.60;79.80;;;;;;4994931;28;20026;-32
2024/03/29 09:53:37;;;;;;;1.10;0.80;;;17.60;79.80;;;;;;4994901;28;20434;-30
2024/03/29 09:56:07;;;;;;;1.42;0.90;;;17.60;79.80;;;;;;4995104;28;20026;-33
2024/03/29 09:58:37;;;;;;;1.05;0.90;;;17.60;79.90;;;;;;4994664;28;20037;-32
2024/03/29 10:01:04;;;;;;;3.13;1.10;;;17.60;79.90;;;;;;4994660;28;20112;-32
2024/03/29 10:03:32;;;;;;;1.00;0.63;;;17.60;80.00;;;;;;4994881;28;20035;-31
2024/03/29 10:05:58;;;;;;;1.48;0.77;;;17.60;80.00;;;;;;4994555;28;20018;-33
2024/03/29 10:08:29;;;;;;;1.65;1.10;;;17.70;80.00;;;;;;4994677;28;20041;-31
2024/03/29 10:10:59;;;;;;;1.13;0.70;;;17.70;80.00;;;;;;4994778;28;20532;-33
2024/03/29 10:13:25;;;;;;;1.58;0.88;;;17.70;80.00;;;;;;4995108;28;20456;-32
2024/03/29 10:15:53;;;;;;;1.10;0.80;;;17.70;80.00;;;;;;4994940;28;20495;-31
2024/03/29 10:18:20;;;;;;;0.95;0.70;;;17.70;80.00;;;;;;4994442;28;20026;-33
2024/03/29 10:20:46;;;;;;;1.10;0.80;;;17.80;80.00;;;;;;4996940;28;20029;-32
2024/03/29 10:23:12;;;;;;;1.40;0.80;;;17.80;79.90;;;;;;4994757;28;20018;-32
2024/03/29 10:25:38;;;;;;;2.03;0.90;;;17.80;79.90;;;;;;4994736;28;20385;-33
2024/03/29 10:28:04;;;;;;;1.42;0.90;;;17.90;79.90;;;;;;4994284;28;20030;-30
2024/03/29 10:30:30;;;;;;;1.10;0.75;;;17.90;79.90;;;;;;4994622;28;20046;-31
2024/03/29 10:32:57;;;;;;;1.83;1.00;;;17.90;79.80;;;;;;4994769;28;20022;-32
2024/03/29 10:35:24;;;;;;;1.45;0.80;;;17.90;79.70;;;;;;4994581;28;20057;-33
2024/03/29 10:37:51;;;;;;;1.17;0.70;;;18.00;79.80;;;;;;4993791;28;20022;-31
2024/03/29 10:40:18;;;;;;;1.00;0.70;;;18.00;79.70;;;;;;4994070;28;20406;-31
2024/03/29 10:42:47;;;;;;;1.42;0.80;;;18.10;79.70;;;;;;4994211;28;20290;-32
2024/03/29 10:45:14;;;;;;;1.50;1.00;;;18.10;79.60;;;;;;4994607;28;20030;-31
2024/03/29 10:47:44;;;;;;;1.25;0.70;;;18.10;79.50;;;;;;4993813;28;20230;-30
2024/03/29 10:50:12;;;;;;;1.63;0.98;;;18.20;79.40;;;;;;4994084;28;20029;-31
2024/03/29 10:52:40;;;;;;;1.55;1.00;;;18.20;79.40;;;;;;4993918;28;20104;-31
2024/03/29 10:55:08;;;;;;;1.20;0.90;;;18.20;79.30;;;;;;4976258;28;20030;-32
2024/03/29 10:57:39;;;;;;;0.80;0.60;;;18.30;79.30;;;;;;4993495;28;20501;-32
2024/03/29 11:00:20;;;;;;;0.95;0.68;;;18.30;79.20;;;;;;4993679;28;20026;-32
2024/03/29 11:02:52;;;;;;;1.55;0.95;;;18.40;79.10;;;;;;4993814;28;20046;-33
2024/03/29 11:05:18;;;;;;;1.52;0.75;;;18.40;79.00;;;;;;4993867;28;20022;-32
2024/03/29 11:07:45;;;;;;;1.27;0.80;;;18.40;78.90;;;;;;4993451;28;20071;-32
2024/03/29 11:10:28;;;;;;;1.05;0.75;;;18.50;78.90;;;;;;4993537;28;20023;-33
2024/03/29 11:12:59;;;;;;;1.02;0.65;;;18.50;78.80;;;;;;4993975;28;20033;-32
2024/03/29 11:15:33;;;;;;;1.00;0.70;;;18.60;78.70;;;;;;4994001;28;20057;-33
2024/03/29 11:17:59;;;;;;;1.20;0.95;;;18.60;78.60;;;;;;4993526;28;20023;-32
2024/03/29 11:20:37;;;;;;;1.23;0.85;;;18.70;78.60;;;;;;4975891;28;20041;-33
2024/03/29 11:23:10;;;;;;;1.05;0.80;;;18.70;78.50;;;;;;4993537;28;20018;-33
2024/03/29 11:25:40;;;;;;;1.80;0.77;;;18.70;78.40;;;;;;4993494;28;20030;-31
2024/03/29 11:28:13;;;;;;;1.02;0.80;;;18.80;78.40;;;;;;4993021;28;20045;-32
2024/03/29 11:30:48;;;;;;;2.70;0.77;;;18.80;78.30;;;;;;4993068;28;20129;-32
2024/03/29 11:33:48;;;;;;;1.45;0.90;;;18.80;78.30;;;;;;4993178;28;20462;-34
2024/03/29 11:36:17;;;;;;;1.00;0.77;;;18.80;78.20;;;;;;4993267;28;20124;-32
2024/03/29 11:38:44;;;;;;;1.13;0.80;;;18.80;78.20;;;;;;4992953;28;20156;-32
2024/03/29 11:41:18;;;;;;;0.90;0.70;;;18.90;78.20;;;;;;4993185;28;20022;-33
2024/03/29 11:43:44;;;;;;;0.90;0.75;;;18.90;78.10;;;;;;4993613;28;20029;-33
2024/03/29 11:46:12;;;;;;;0.70;0.60;;;18.90;78.00;;;;;;4993227;28;20035;-33
2024/03/29 11:48:39;;;;;;;0.88;0.70;;;19.00;78.00;;;;;;4996536;28;20030;-32
2024/03/29 11:51:08;;;;;;;0.90;0.70;;;19.00;77.90;;;;;;5006422;28;20045;-33
2024/03/29 11:53:33;;;;;;;1.00;0.70;;;19.10;77.80;;;;;;4979654;28;20427;-31
2024/03/29 11:56:00;;;;;;;1.50;0.80;;;19.10;77.70;;;;;;4993437;28;20057;-32
2024/03/29 11:58:28;;;;;;;1.30;0.60;;;19.10;77.70;;;;;;4975872;28;20065;-33
2024/03/29 12:00:54;;;;;;;1.00;0.60;;;19.10;77.60;;;;;;4993017;28;20022;-33
2024/03/29 12:03:22;;;;;;;1.30;0.70;;;19.20;77.50;;;;;;4993311;28;20022;-33
2024/03/29 12:05:50;;;;;;;3.03;0.70;;;19.20;77.50;;;;;;4992896;28;20445;-33
2024/03/29 12:08:16;;;;;;;0.95;0.50;;;19.20;77.40;;;;;;4993001;28;20022;-33
2024/03/29 12:10:42;;;;;;;1.00;0.70;;;19.20;77.40;;;;;;4992697;28;20033;-32
2024/03/29 12:13:08;;;;;;;1.77;0.70;;;19.20;77.30;;;;;;4992765;28;20033;-32
2024/03/29 12:15:34;;;;;;;0.98;0.80;;;19.20;77.30;;;;;;4993149;28;20084;-34
2024/03/29 12:18:08;;;;;;;0.70;0.50;;;19.20;77.20;;;;;;4975392;28;20022;-33
2024/03/29 12:20:36;;;;;;;1.25;0.70;;;19.30;77.20;;;;;;4993076;28;20027;-32
2024/03/29 12:23:03;;;;;;;1.50;0.80;;;19.20;77.90;;;;;;4992833;28;20065;-32
2024/03/29 12:25:29;;;;;;;0.93;0.70;;;19.20;77.10;;;;;;4975313;28;20033;-31
2024/03/29 12:27:55;;;;;;;1.20;0.80;;;19.30;77.10;;;;;;4992683;28;20132;-32
2024/03/29 12:30:22;;;;;;;1.00;0.60;;;19.30;77.10;;;;;;4975000;28;20494;-32
2024/03/29 12:32:47;;;;;;;1.02;0.70;;;19.30;77.00;;;;;;4992677;28;20014;-34
2024/03/29 12:35:16;;;;;;;0.85;0.60;;;19.30;77.00;;;;;;4991940;28;20053;-32
2024/03/29 12:37:51;;;;;;;0.68;0.60;;;19.30;77.00;;;;;;4998841;28;20030;-32
2024/03/29 12:40:23;;;;;;;0.60;0.50;;;19.30;76.90;;;;;;4991888;28;20282;-33
2024/03/29 12:42:50;;;;;;;1.00;0.70;;;19.30;77.60;;;;;;4986958;28;20511;-32
2024/03/29 12:45:19;;;;;;;1.02;0.60;;;19.30;76.80;;;;;;4991116;28;20041;-33
2024/03/29 12:50:27;;;;;;;0.77;0.50;;;19.40;76.90;;;;;;4959513;28;20427;-34
2024/03/29 12:53:00;;;;;;;1.08;0.65;;;19.40;76.90;;;;;;4968695;28;20023;-34
2024/03/29 12:55:31;;;;;;;1.52;0.80;;;19.40;76.80;;;;;;4961995;28;20106;-33